sensor_id;sensor_type;location;lat;lon;timestamp;temperature;humidity
23452;DHT22;11898;51.130;6.780;2022-07-06T00:01:33;17.50;99.90
23452;DHT22;11898;51.130;6.780;2022-07-06T00:04:03;17.40;99.90
23452;DHT22;11898;51.130;6.780;2022-07-06T00:06:32;17.40;99.90
23452;DHT22;11898;51.130;6.780;2022-07-06T00:09:01;17.40;99.90
23452;DHT22;11898;51.130;6.780;2022-07-06T00:11:29;17.40;99.90
23452;DHT22;11898;51.130;6.780;2022-07-06T00:13:58;17.30;99.90
23452;DHT22;11898;51.130;6.780;2022-07-06T00:16:27;17.20;99.90
23452;DHT22;11898;51.130;6.780;2022-07-06T00:18:56;17.10;99.90
23452;DHT22;11898;51.130;6.780;2022-07-06T00:21:24;17.10;99.90
23452;DHT22;11898;51.130;6.780;2022-07-06T00:23:53;17.10;99.90
23452;DHT22;11898;51.130;6.780;2022-07-06T00:26:22;17.00;99.90
23452;DHT22;11898;51.130;6.780;2022-07-06T00:28:50;17.00;99.90
23452;DHT22;11898;51.130;6.780;2022-07-06T00:31:19;17.00;99.90
23452;DHT22;11898;51.130;6.780;2022-07-06T00:33:47;17.00;99.90
23452;DHT22;11898;51.130;6.780;2022-07-06T00:36:16;16.80;99.90
23452;DHT22;11898;51.130;6.780;2022-07-06T00:38:45;16.90;99.90
23452;DHT22;11898;51.130;6.780;2022-07-06T00:41:14;16.90;99.90
23452;DHT22;11898;51.130;6.780;2022-07-06T00:43:55;16.80;99.90
23452;DHT22;11898;51.130;6.780;2022-07-06T00:46:28;16.80;99.90
23452;DHT22;11898;51.130;6.780;2022-07-06T00:48:52;16.80;99.90
23452;DHT22;11898;51.130;6.780;2022-07-06T00:51:28;16.90;99.90
23452;DHT22;11898;51.130;6.780;2022-07-06T00:53:52;16.80;99.90
23452;DHT22;11898;51.130;6.780;2022-07-06T00:56:21;16.70;99.90
23452;DHT22;11898;51.130;6.780;2022-07-06T00:58:50;16.60;99.90
23452;DHT22;11898;51.130;6.780;2022-07-06T01:01:19;16.70;99.90
23452;DHT22;11898;51.130;6.780;2022-07-06T01:03:48;16.60;99.90
23452;DHT22;11898;51.130;6.780;2022-07-06T01:06:17;16.60;99.90
23452;DHT22;11898;51.130;6.780;2022-07-06T01:08:46;16.60;99.90
23452;DHT22;11898;51.130;6.780;2022-07-06T01:11:17;16.60;99.90
23452;DHT22;11898;51.130;6.780;2022-07-06T01:13:48;16.50;99.90
23452;DHT22;11898;51.130;6.780;2022-07-06T01:16:18;16.50;99.90
23452;DHT22;11898;51.130;6.780;2022-07-06T01:18:46;16.40;99.90
23452;DHT22;11898;51.130;6.780;2022-07-06T01:21:15;16.40;99.90
23452;DHT22;11898;51.130;6.780;2022-07-06T01:23:46;16.40;99.90
23452;DHT22;11898;51.130;6.780;2022-07-06T01:29:04;16.50;99.90
23452;DHT22;11898;51.130;6.780;2022-07-06T01:31:33;16.30;99.90
23452;DHT22;11898;51.130;6.780;2022-07-06T01:34:01;16.30;99.90
23452;DHT22;11898;51.130;6.780;2022-07-06T01:36:30;16.20;99.90
23452;DHT22;11898;51.130;6.780;2022-07-06T01:38:59;16.20;99.90
23452;DHT22;11898;51.130;6.780;2022-07-06T01:41:27;16.30;99.90
23452;DHT22;11898;51.130;6.780;2022-07-06T01:43:56;16.10;99.90
23452;DHT22;11898;51.130;6.780;2022-07-06T01:46:24;16.00;99.90
23452;DHT22;11898;51.130;6.780;2022-07-06T01:48:53;16.00;99.90
23452;DHT22;11898;51.130;6.780;2022-07-06T01:51:22;15.80;99.90
23452;DHT22;11898;51.130;6.780;2022-07-06T01:53:51;15.80;99.90
23452;DHT22;11898;51.130;6.780;2022-07-06T01:56:20;15.90;99.90
23452;DHT22;11898;51.130;6.780;2022-07-06T01:58:49;15.80;99.90
23452;DHT22;11898;51.130;6.780;2022-07-06T02:01:19;15.70;99.90
23452;DHT22;11898;51.130;6.780;2022-07-06T02:03:48;15.90;99.90
23452;DHT22;11898;51.130;6.780;2022-07-06T02:06:17;15.80;99.90
23452;DHT22;11898;51.130;6.780;2022-07-06T02:08:46;15.70;99.90
23452;DHT22;11898;51.130;6.780;2022-07-06T02:11:14;15.50;99.90
23452;DHT22;11898;51.130;6.780;2022-07-06T02:13:43;15.80;99.90
23452;DHT22;11898;51.130;6.780;2022-07-06T02:16:12;15.80;99.90
23452;DHT22;11898;51.130;6.780;2022-07-06T02:18:41;15.70;99.90
23452;DHT22;11898;51.130;6.780;2022-07-06T02:21:10;15.60;99.90
23452;DHT22;11898;51.130;6.780;2022-07-06T02:23:39;15.60;99.90
23452;DHT22;11898;51.130;6.780;2022-07-06T02:26:08;15.50;99.90
23452;DHT22;11898;51.130;6.780;2022-07-06T02:28:36;15.50;99.90
23452;DHT22;11898;51.130;6.780;2022-07-06T02:31:05;15.50;99.90
23452;DHT22;11898;51.130;6.780;2022-07-06T02:33:34;15.60;99.90
23452;DHT22;11898;51.130;6.780;2022-07-06T02:36:02;15.50;99.90
23452;DHT22;11898;51.130;6.780;2022-07-06T02:38:31;15.40;99.90
23452;DHT22;11898;51.130;6.780;2022-07-06T02:40:59;15.50;99.90
23452;DHT22;11898;51.130;6.780;2022-07-06T02:43:28;15.50;99.90
23452;DHT22;11898;51.130;6.780;2022-07-06T02:45:57;15.50;99.90
23452;DHT22;11898;51.130;6.780;2022-07-06T02:48:26;15.60;99.90
23452;DHT22;11898;51.130;6.780;2022-07-06T02:50:55;15.60;99.90
23452;DHT22;11898;51.130;6.780;2022-07-06T02:53:24;15.50;99.90
23452;DHT22;11898;51.130;6.780;2022-07-06T02:55:52;15.50;99.90
23452;DHT22;11898;51.130;6.780;2022-07-06T02:58:21;15.40;99.90
23452;DHT22;11898;51.130;6.780;2022-07-06T03:00:50;15.40;99.90
23452;DHT22;11898;51.130;6.780;2022-07-06T03:03:19;15.40;99.90
23452;DHT22;11898;51.130;6.780;2022-07-06T03:05:48;15.50;99.90
23452;DHT22;11898;51.130;6.780;2022-07-06T03:08:16;15.50;99.90
23452;DHT22;11898;51.130;6.780;2022-07-06T03:10:45;15.50;99.90
23452;DHT22;11898;51.130;6.780;2022-07-06T03:13:13;15.40;99.90
23452;DHT22;11898;51.130;6.780;2022-07-06T03:15:42;15.30;99.90
23452;DHT22;11898;51.130;6.780;2022-07-06T03:18:11;15.30;99.90
23452;DHT22;11898;51.130;6.780;2022-07-06T03:20:40;15.20;99.90
23452;DHT22;11898;51.130;6.780;2022-07-06T03:23:08;15.10;99.90
23452;DHT22;11898;51.130;6.780;2022-07-06T03:25:37;15.20;99.90
23452;DHT22;11898;51.130;6.780;2022-07-06T03:28:06;15.00;99.90
23452;DHT22;11898;51.130;6.780;2022-07-06T03:30:34;15.10;99.90
23452;DHT22;11898;51.130;6.780;2022-07-06T03:33:03;15.00;99.90
23452;DHT22;11898;51.130;6.780;2022-07-06T03:35:32;14.80;99.90
23452;DHT22;11898;51.130;6.780;2022-07-06T03:38:00;14.90;99.90
23452;DHT22;11898;51.130;6.780;2022-07-06T03:40:30;14.80;99.90
23452;DHT22;11898;51.130;6.780;2022-07-06T03:42:59;14.70;99.90
23452;DHT22;11898;51.130;6.780;2022-07-06T03:45:27;14.50;99.90
23452;DHT22;11898;51.130;6.780;2022-07-06T03:47:56;14.60;99.90
23452;DHT22;11898;51.130;6.780;2022-07-06T03:50:24;14.60;99.90
23452;DHT22;11898;51.130;6.780;2022-07-06T03:52:53;14.40;99.90
23452;DHT22;11898;51.130;6.780;2022-07-06T03:55:22;14.60;99.90
23452;DHT22;11898;51.130;6.780;2022-07-06T03:57:50;14.50;99.90
23452;DHT22;11898;51.130;6.780;2022-07-06T04:00:19;14.50;99.90
23452;DHT22;11898;51.130;6.780;2022-07-06T04:02:47;14.30;99.90
23452;DHT22;11898;51.130;6.780;2022-07-06T04:05:16;14.50;99.90
23452;DHT22;11898;51.130;6.780;2022-07-06T04:07:47;14.40;99.90
23452;DHT22;11898;51.130;6.780;2022-07-06T04:10:16;14.40;99.90
23452;DHT22;11898;51.130;6.780;2022-07-06T04:12:45;14.40;99.90
23452;DHT22;11898;51.130;6.780;2022-07-06T04:15:14;14.40;99.90
23452;DHT22;11898;51.130;6.780;2022-07-06T04:17:42;14.50;99.90
23452;DHT22;11898;51.130;6.780;2022-07-06T04:20:21;14.50;99.90
23452;DHT22;11898;51.130;6.780;2022-07-06T04:22:51;14.40;99.90
23452;DHT22;11898;51.130;6.780;2022-07-06T04:25:20;14.40;99.90
23452;DHT22;11898;51.130;6.780;2022-07-06T04:27:48;14.50;99.90
23452;DHT22;11898;51.130;6.780;2022-07-06T04:30:17;14.60;99.90
23452;DHT22;11898;51.130;6.780;2022-07-06T04:32:46;14.50;99.90
23452;DHT22;11898;51.130;6.780;2022-07-06T04:35:14;14.70;99.90
23452;DHT22;11898;51.130;6.780;2022-07-06T04:37:43;14.80;99.90
23452;DHT22;11898;51.130;6.780;2022-07-06T04:40:14;14.80;99.90
23452;DHT22;11898;51.130;6.780;2022-07-06T04:42:44;14.80;99.90
23452;DHT22;11898;51.130;6.780;2022-07-06T04:45:13;14.70;99.90
23452;DHT22;11898;51.130;6.780;2022-07-06T04:47:41;14.90;99.90
23452;DHT22;11898;51.130;6.780;2022-07-06T04:50:11;15.00;99.90
23452;DHT22;11898;51.130;6.780;2022-07-06T04:52:40;15.20;99.90
23452;DHT22;11898;51.130;6.780;2022-07-06T04:55:09;14.90;99.90
23452;DHT22;11898;51.130;6.780;2022-07-06T04:57:37;14.90;99.90
23452;DHT22;11898;51.130;6.780;2022-07-06T05:00:07;15.10;99.90
23452;DHT22;11898;51.130;6.780;2022-07-06T05:02:35;15.10;99.90
23452;DHT22;11898;51.130;6.780;2022-07-06T05:05:05;15.10;99.90
23452;DHT22;11898;51.130;6.780;2022-07-06T05:07:33;15.30;99.90
23452;DHT22;11898;51.130;6.780;2022-07-06T05:10:04;15.30;99.90
23452;DHT22;11898;51.130;6.780;2022-07-06T05:12:32;15.40;99.90
23452;DHT22;11898;51.130;6.780;2022-07-06T05:15:01;15.50;99.90
23452;DHT22;11898;51.130;6.780;2022-07-06T05:17:30;15.50;99.90
23452;DHT22;11898;51.130;6.780;2022-07-06T05:20:00;15.50;99.90
23452;DHT22;11898;51.130;6.780;2022-07-06T05:22:28;15.50;99.90
23452;DHT22;11898;51.130;6.780;2022-07-06T05:24:57;15.60;99.90
23452;DHT22;11898;51.130;6.780;2022-07-06T05:27:26;15.70;99.90
23452;DHT22;11898;51.130;6.780;2022-07-06T05:29:54;15.70;99.90
23452;DHT22;11898;51.130;6.780;2022-07-06T05:32:24;15.80;99.90
23452;DHT22;11898;51.130;6.780;2022-07-06T05:34:52;15.70;99.90
23452;DHT22;11898;51.130;6.780;2022-07-06T05:37:21;15.80;99.90
23452;DHT22;11898;51.130;6.780;2022-07-06T05:39:49;15.80;99.90
23452;DHT22;11898;51.130;6.780;2022-07-06T05:42:18;15.90;99.90
23452;DHT22;11898;51.130;6.780;2022-07-06T05:44:47;16.00;99.90
23452;DHT22;11898;51.130;6.780;2022-07-06T05:47:15;16.10;99.90
23452;DHT22;11898;51.130;6.780;2022-07-06T05:50:02;16.30;99.90
23452;DHT22;11898;51.130;6.780;2022-07-06T05:52:41;16.40;99.90
23452;DHT22;11898;51.130;6.780;2022-07-06T05:55:14;16.70;99.90
23452;DHT22;11898;51.130;6.780;2022-07-06T05:57:42;17.00;99.90
23452;DHT22;11898;51.130;6.780;2022-07-06T06:00:11;17.20;99.90
23452;DHT22;11898;51.130;6.780;2022-07-06T06:02:41;17.40;99.90
23452;DHT22;11898;51.130;6.780;2022-07-06T06:05:11;17.50;99.90
23452;DHT22;11898;51.130;6.780;2022-07-06T06:07:40;17.60;99.90
23452;DHT22;11898;51.130;6.780;2022-07-06T06:10:11;17.80;99.90
23452;DHT22;11898;51.130;6.780;2022-07-06T06:12:41;18.00;99.90
23452;DHT22;11898;51.130;6.780;2022-07-06T06:15:10;18.10;99.90
23452;DHT22;11898;51.130;6.780;2022-07-06T06:17:39;18.20;99.90
23452;DHT22;11898;51.130;6.780;2022-07-06T06:20:10;18.30;99.90
23452;DHT22;11898;51.130;6.780;2022-07-06T06:22:49;18.50;99.90
23452;DHT22;11898;51.130;6.780;2022-07-06T06:25:38;18.60;99.90
23452;DHT22;11898;51.130;6.780;2022-07-06T06:28:08;18.70;99.90
23452;DHT22;11898;51.130;6.780;2022-07-06T06:30:38;18.80;99.90
23452;DHT22;11898;51.130;6.780;2022-07-06T06:33:18;18.90;99.90
23452;DHT22;11898;51.130;6.780;2022-07-06T06:35:49;19.00;99.90
23452;DHT22;11898;51.130;6.780;2022-07-06T06:38:20;19.10;99.90
23452;DHT22;11898;51.130;6.780;2022-07-06T06:40:49;19.20;99.90
23452;DHT22;11898;51.130;6.780;2022-07-06T06:43:18;19.20;99.90
23452;DHT22;11898;51.130;6.780;2022-07-06T06:45:47;19.10;99.90
23452;DHT22;11898;51.130;6.780;2022-07-06T06:48:15;19.10;99.90
23452;DHT22;11898;51.130;6.780;2022-07-06T06:50:45;19.00;99.90
23452;DHT22;11898;51.130;6.780;2022-07-06T06:53:15;19.00;99.90
23452;DHT22;11898;51.130;6.780;2022-07-06T06:55:44;18.90;99.90
23452;DHT22;11898;51.130;6.780;2022-07-06T06:58:12;18.90;99.90
23452;DHT22;11898;51.130;6.780;2022-07-06T07:00:41;18.90;99.90
23452;DHT22;11898;51.130;6.780;2022-07-06T07:03:12;18.80;99.90
23452;DHT22;11898;51.130;6.780;2022-07-06T07:05:40;18.80;99.90
23452;DHT22;11898;51.130;6.780;2022-07-06T07:08:09;18.80;99.90
23452;DHT22;11898;51.130;6.780;2022-07-06T07:10:39;18.90;99.90
23452;DHT22;11898;51.130;6.780;2022-07-06T07:13:08;18.90;99.90
23452;DHT22;11898;51.130;6.780;2022-07-06T07:15:36;18.90;99.90
23452;DHT22;11898;51.130;6.780;2022-07-06T07:18:05;18.90;99.90
23452;DHT22;11898;51.130;6.780;2022-07-06T07:20:35;19.00;99.90
23452;DHT22;11898;51.130;6.780;2022-07-06T07:23:04;19.00;99.90
23452;DHT22;11898;51.130;6.780;2022-07-06T07:25:34;18.90;99.90
23452;DHT22;11898;51.130;6.780;2022-07-06T07:28:05;18.90;99.90
23452;DHT22;11898;51.130;6.780;2022-07-06T07:30:33;19.00;99.90
23452;DHT22;11898;51.130;6.780;2022-07-06T07:33:02;19.10;99.90
23452;DHT22;11898;51.130;6.780;2022-07-06T07:35:31;19.20;99.90
23452;DHT22;11898;51.130;6.780;2022-07-06T07:38:00;19.10;99.90
23452;DHT22;11898;51.130;6.780;2022-07-06T07:40:28;19.40;99.90
23452;DHT22;11898;51.130;6.780;2022-07-06T07:42:57;19.50;99.90
23452;DHT22;11898;51.130;6.780;2022-07-06T07:45:26;19.70;99.90
23452;DHT22;11898;51.130;6.780;2022-07-06T07:47:54;19.70;99.90
23452;DHT22;11898;51.130;6.780;2022-07-06T07:50:23;19.90;99.90
23452;DHT22;11898;51.130;6.780;2022-07-06T07:52:54;19.90;99.90
23452;DHT22;11898;51.130;6.780;2022-07-06T07:55:22;19.90;99.90
23452;DHT22;11898;51.130;6.780;2022-07-06T07:57:53;19.90;99.90
23452;DHT22;11898;51.130;6.780;2022-07-06T08:00:22;19.90;99.90
23452;DHT22;11898;51.130;6.780;2022-07-06T08:02:54;20.00;99.90
23452;DHT22;11898;51.130;6.780;2022-07-06T08:05:23;20.10;99.90
23452;DHT22;11898;51.130;6.780;2022-07-06T08:07:53;20.20;99.90
23452;DHT22;11898;51.130;6.780;2022-07-06T08:10:22;20.30;99.90
23452;DHT22;11898;51.130;6.780;2022-07-06T08:12:50;20.30;99.90
23452;DHT22;11898;51.130;6.780;2022-07-06T08:15:19;20.40;99.90
23452;DHT22;11898;51.130;6.780;2022-07-06T08:17:47;20.60;99.90
23452;DHT22;11898;51.130;6.780;2022-07-06T08:20:16;20.60;99.90
23452;DHT22;11898;51.130;6.780;2022-07-06T08:22:45;20.70;99.90
23452;DHT22;11898;51.130;6.780;2022-07-06T08:25:15;20.70;99.90
23452;DHT22;11898;51.130;6.780;2022-07-06T08:27:44;20.80;99.90
23452;DHT22;11898;51.130;6.780;2022-07-06T08:30:13;20.80;99.90
23452;DHT22;11898;51.130;6.780;2022-07-06T08:32:42;20.90;99.90
23452;DHT22;11898;51.130;6.780;2022-07-06T08:35:13;20.80;99.90
23452;DHT22;11898;51.130;6.780;2022-07-06T08:37:41;21.00;99.90
23452;DHT22;11898;51.130;6.780;2022-07-06T08:40:10;21.00;99.90
23452;DHT22;11898;51.130;6.780;2022-07-06T08:42:39;20.90;99.90
23452;DHT22;11898;51.130;6.780;2022-07-06T08:45:09;21.00;99.90
23452;DHT22;11898;51.130;6.780;2022-07-06T08:47:37;21.00;99.90
23452;DHT22;11898;51.130;6.780;2022-07-06T08:50:06;20.90;99.90
23452;DHT22;11898;51.130;6.780;2022-07-06T08:52:37;20.90;99.90
23452;DHT22;11898;51.130;6.780;2022-07-06T08:55:10;21.00;99.90
23452;DHT22;11898;51.130;6.780;2022-07-06T08:57:42;20.80;99.90
23452;DHT22;11898;51.130;6.780;2022-07-06T09:00:11;20.80;99.90
23452;DHT22;11898;51.130;6.780;2022-07-06T09:02:41;20.70;99.90
23452;DHT22;11898;51.130;6.780;2022-07-06T09:05:13;20.80;99.90
23452;DHT22;11898;51.130;6.780;2022-07-06T09:07:43;20.60;99.90
23452;DHT22;11898;51.130;6.780;2022-07-06T09:10:15;20.60;99.90
23452;DHT22;11898;51.130;6.780;2022-07-06T09:12:45;20.50;99.90
23452;DHT22;11898;51.130;6.780;2022-07-06T09:15:14;20.40;99.90
23452;DHT22;11898;51.130;6.780;2022-07-06T09:17:43;20.30;99.90
23452;DHT22;11898;51.130;6.780;2022-07-06T09:20:13;20.30;99.90
23452;DHT22;11898;51.130;6.780;2022-07-06T09:22:42;20.30;99.90
23452;DHT22;11898;51.130;6.780;2022-07-06T09:25:13;20.20;99.90
23452;DHT22;11898;51.130;6.780;2022-07-06T09:27:48;20.20;99.90
23452;DHT22;11898;51.130;6.780;2022-07-06T09:30:18;20.00;99.90
23452;DHT22;11898;51.130;6.780;2022-07-06T09:32:49;19.90;99.90
23452;DHT22;11898;51.130;6.780;2022-07-06T09:35:26;19.80;99.90
23452;DHT22;11898;51.130;6.780;2022-07-06T09:38:06;19.80;99.90
23452;DHT22;11898;51.130;6.780;2022-07-06T09:40:38;19.80;99.90
23452;DHT22;11898;51.130;6.780;2022-07-06T09:46:00;19.80;99.90
23452;DHT22;11898;51.130;6.780;2022-07-06T09:48:31;19.80;99.90
23452;DHT22;11898;51.130;6.780;2022-07-06T09:51:01;19.90;99.90
23452;DHT22;11898;51.130;6.780;2022-07-06T09:53:35;19.90;99.90
23452;DHT22;11898;51.130;6.780;2022-07-06T09:56:05;20.10;99.90
23452;DHT22;11898;51.130;6.780;2022-07-06T09:58:38;20.20;99.90
23452;DHT22;11898;51.130;6.780;2022-07-06T10:01:08;20.40;99.90
23452;DHT22;11898;51.130;6.780;2022-07-06T10:03:39;20.90;99.90
23452;DHT22;11898;51.130;6.780;2022-07-06T10:06:08;21.10;99.90
23452;DHT22;11898;51.130;6.780;2022-07-06T10:08:36;21.60;99.90
23452;DHT22;11898;51.130;6.780;2022-07-06T10:11:05;22.00;99.90
23452;DHT22;11898;51.130;6.780;2022-07-06T10:13:33;22.20;99.90
23452;DHT22;11898;51.130;6.780;2022-07-06T10:16:04;22.50;99.90
23452;DHT22;11898;51.130;6.780;2022-07-06T10:18:31;22.60;99.90
23452;DHT22;11898;51.130;6.780;2022-07-06T10:20:59;22.90;99.90
23452;DHT22;11898;51.130;6.780;2022-07-06T10:23:27;23.00;99.90
23452;DHT22;11898;51.130;6.780;2022-07-06T10:25:56;23.30;99.90
23452;DHT22;11898;51.130;6.780;2022-07-06T10:28:24;23.40;99.90
23452;DHT22;11898;51.130;6.780;2022-07-06T10:30:54;23.50;99.90
23452;DHT22;11898;51.130;6.780;2022-07-06T10:33:22;23.60;99.90
23452;DHT22;11898;51.130;6.780;2022-07-06T10:35:52;23.70;99.90
23452;DHT22;11898;51.130;6.780;2022-07-06T10:38:22;23.70;99.90
23452;DHT22;11898;51.130;6.780;2022-07-06T10:40:52;23.80;99.90
23452;DHT22;11898;51.130;6.780;2022-07-06T10:43:38;24.00;99.90
23452;DHT22;11898;51.130;6.780;2022-07-06T10:46:09;24.00;99.90
23452;DHT22;11898;51.130;6.780;2022-07-06T10:48:35;23.90;99.90
23452;DHT22;11898;51.130;6.780;2022-07-06T10:51:03;23.70;99.90
23452;DHT22;11898;51.130;6.780;2022-07-06T10:53:33;23.70;99.90
23452;DHT22;11898;51.130;6.780;2022-07-06T10:56:21;23.50;99.90
23452;DHT22;11898;51.130;6.780;2022-07-06T10:58:50;23.40;99.90
23452;DHT22;11898;51.130;6.780;2022-07-06T11:01:20;23.40;99.90
23452;DHT22;11898;51.130;6.780;2022-07-06T11:06:46;23.60;99.90
23452;DHT22;11898;51.130;6.780;2022-07-06T11:09:14;23.60;99.90
23452;DHT22;11898;51.130;6.780;2022-07-06T11:11:43;23.50;99.90
23452;DHT22;11898;51.130;6.780;2022-07-06T11:14:20;23.50;99.90
23452;DHT22;11898;51.130;6.780;2022-07-06T11:19:21;23.40;99.90
23452;DHT22;11898;51.130;6.780;2022-07-06T11:21:51;23.30;99.90
23452;DHT22;11898;51.130;6.780;2022-07-06T11:24:20;23.30;99.90
23452;DHT22;11898;51.130;6.780;2022-07-06T11:26:49;23.30;99.90
23452;DHT22;11898;51.130;6.780;2022-07-06T11:29:18;23.20;99.90
23452;DHT22;11898;51.130;6.780;2022-07-06T11:31:48;23.30;99.90
23452;DHT22;11898;51.130;6.780;2022-07-06T11:34:23;23.40;99.90
23452;DHT22;11898;51.130;6.780;2022-07-06T11:39:39;23.70;99.90
23452;DHT22;11898;51.130;6.780;2022-07-06T11:42:08;23.80;99.90
23452;DHT22;11898;51.130;6.780;2022-07-06T11:44:36;23.70;99.90
23452;DHT22;11898;51.130;6.780;2022-07-06T11:47:05;23.70;99.90
23452;DHT22;11898;51.130;6.780;2022-07-06T11:49:34;23.80;99.90
23452;DHT22;11898;51.130;6.780;2022-07-06T11:52:07;23.80;99.90
23452;DHT22;11898;51.130;6.780;2022-07-06T11:54:35;23.80;99.90
23452;DHT22;11898;51.130;6.780;2022-07-06T11:57:03;23.70;99.90
23452;DHT22;11898;51.130;6.780;2022-07-06T11:59:32;23.60;99.90
23452;DHT22;11898;51.130;6.780;2022-07-06T12:02:00;23.60;99.90
23452;DHT22;11898;51.130;6.780;2022-07-06T12:04:29;23.50;99.90
23452;DHT22;11898;51.130;6.780;2022-07-06T12:07:01;23.50;99.90
23452;DHT22;11898;51.130;6.780;2022-07-06T12:09:36;23.30;99.90
23452;DHT22;11898;51.130;6.780;2022-07-06T12:12:04;23.30;99.90
23452;DHT22;11898;51.130;6.780;2022-07-06T12:14:33;23.30;99.90
23452;DHT22;11898;51.130;6.780;2022-07-06T12:17:05;24.20;99.90
23452;DHT22;11898;51.130;6.780;2022-07-06T12:19:34;23.50;99.90
23452;DHT22;11898;51.130;6.780;2022-07-06T12:22:02;23.40;99.90
23452;DHT22;11898;51.130;6.780;2022-07-06T12:24:31;23.40;99.90
23452;DHT22;11898;51.130;6.780;2022-07-06T12:27:12;23.50;99.90
23452;DHT22;11898;51.130;6.780;2022-07-06T12:29:41;23.50;99.90
23452;DHT22;11898;51.130;6.780;2022-07-06T12:32:22;23.50;99.90
23452;DHT22;11898;51.130;6.780;2022-07-06T12:35:08;23.50;99.90
23452;DHT22;11898;51.130;6.780;2022-07-06T12:37:32;23.50;99.90
23452;DHT22;11898;51.130;6.780;2022-07-06T12:40:00;23.60;99.90
23452;DHT22;11898;51.130;6.780;2022-07-06T12:42:28;23.60;99.90
23452;DHT22;11898;51.130;6.780;2022-07-06T12:44:56;23.70;99.90
23452;DHT22;11898;51.130;6.780;2022-07-06T12:47:24;23.90;99.90
23452;DHT22;11898;51.130;6.780;2022-07-06T12:50:05;24.10;99.90
23452;DHT22;11898;51.130;6.780;2022-07-06T12:52:34;24.20;99.90
23452;DHT22;11898;51.130;6.780;2022-07-06T12:55:03;24.30;99.90
23452;DHT22;11898;51.130;6.780;2022-07-06T12:57:46;24.40;99.90
23452;DHT22;11898;51.130;6.780;2022-07-06T13:00:14;24.50;99.90
23452;DHT22;11898;51.130;6.780;2022-07-06T13:02:44;24.50;99.90
23452;DHT22;11898;51.130;6.780;2022-07-06T13:05:15;24.50;99.90
23452;DHT22;11898;51.130;6.780;2022-07-06T13:07:46;24.50;99.90
23452;DHT22;11898;51.130;6.780;2022-07-06T13:10:15;24.50;99.90
23452;DHT22;11898;51.130;6.780;2022-07-06T13:12:48;24.50;99.90
23452;DHT22;11898;51.130;6.780;2022-07-06T13:15:16;24.50;99.90
23452;DHT22;11898;51.130;6.780;2022-07-06T13:17:44;24.50;99.90
23452;DHT22;11898;51.130;6.780;2022-07-06T13:20:12;24.40;99.90
23452;DHT22;11898;51.130;6.780;2022-07-06T13:22:40;24.60;99.90
23452;DHT22;11898;51.130;6.780;2022-07-06T13:25:08;24.60;99.90
23452;DHT22;11898;51.130;6.780;2022-07-06T13:27:36;24.80;99.90
23452;DHT22;11898;51.130;6.780;2022-07-06T13:30:04;24.80;99.90
23452;DHT22;11898;51.130;6.780;2022-07-06T13:32:32;24.80;99.90
23452;DHT22;11898;51.130;6.780;2022-07-06T13:35:00;24.90;99.90
23452;DHT22;11898;51.130;6.780;2022-07-06T13:37:28;25.00;99.90
23452;DHT22;11898;51.130;6.780;2022-07-06T13:39:56;25.10;99.90
23452;DHT22;11898;51.130;6.780;2022-07-06T13:42:24;25.10;99.90
23452;DHT22;11898;51.130;6.780;2022-07-06T13:44:52;25.60;99.90
23452;DHT22;11898;51.130;6.780;2022-07-06T13:47:20;25.80;99.90
23452;DHT22;11898;51.130;6.780;2022-07-06T13:49:47;26.00;99.90
23452;DHT22;11898;51.130;6.780;2022-07-06T13:52:16;26.10;99.90
23452;DHT22;11898;51.130;6.780;2022-07-06T13:54:45;26.30;99.90
23452;DHT22;11898;51.130;6.780;2022-07-06T13:57:13;26.30;99.90
23452;DHT22;11898;51.130;6.780;2022-07-06T13:59:41;26.30;99.90
23452;DHT22;11898;51.130;6.780;2022-07-06T14:02:09;26.30;99.90
23452;DHT22;11898;51.130;6.780;2022-07-06T14:04:38;26.50;99.90
23452;DHT22;11898;51.130;6.780;2022-07-06T14:07:05;26.70;99.90
23452;DHT22;11898;51.130;6.780;2022-07-06T14:09:33;26.80;99.90
23452;DHT22;11898;51.130;6.780;2022-07-06T14:12:01;27.10;99.90
23452;DHT22;11898;51.130;6.780;2022-07-06T14:14:30;27.10;99.90
23452;DHT22;11898;51.130;6.780;2022-07-06T14:16:58;27.20;99.90
23452;DHT22;11898;51.130;6.780;2022-07-06T14:19:26;27.20;99.90
23452;DHT22;11898;51.130;6.780;2022-07-06T14:21:54;27.20;99.90
23452;DHT22;11898;51.130;6.780;2022-07-06T14:24:21;27.20;99.90
23452;DHT22;11898;51.130;6.780;2022-07-06T14:26:51;27.20;99.90
23452;DHT22;11898;51.130;6.780;2022-07-06T14:29:19;27.10;99.90
23452;DHT22;11898;51.130;6.780;2022-07-06T14:31:47;27.30;99.90
23452;DHT22;11898;51.130;6.780;2022-07-06T14:34:14;27.50;99.90
23452;DHT22;11898;51.130;6.780;2022-07-06T14:36:42;27.60;99.90
23452;DHT22;11898;51.130;6.780;2022-07-06T14:39:10;27.70;99.90
23452;DHT22;11898;51.130;6.780;2022-07-06T14:41:39;27.90;99.90
23452;DHT22;11898;51.130;6.780;2022-07-06T14:44:06;28.00;99.90
23452;DHT22;11898;51.130;6.780;2022-07-06T14:46:34;28.10;99.90
23452;DHT22;11898;51.130;6.780;2022-07-06T14:49:02;28.20;99.90
23452;DHT22;11898;51.130;6.780;2022-07-06T14:51:30;28.30;99.90
23452;DHT22;11898;51.130;6.780;2022-07-06T14:53:58;28.50;99.90
23452;DHT22;11898;51.130;6.780;2022-07-06T14:56:27;28.50;99.90
23452;DHT22;11898;51.130;6.780;2022-07-06T14:58:55;28.50;99.90
23452;DHT22;11898;51.130;6.780;2022-07-06T15:01:24;28.60;99.90
23452;DHT22;11898;51.130;6.780;2022-07-06T15:03:52;28.70;99.90
23452;DHT22;11898;51.130;6.780;2022-07-06T15:06:20;28.70;99.90
23452;DHT22;11898;51.130;6.780;2022-07-06T15:08:50;28.80;99.90
23452;DHT22;11898;51.130;6.780;2022-07-06T15:11:20;28.80;99.90
23452;DHT22;11898;51.130;6.780;2022-07-06T15:13:47;28.70;99.90
23452;DHT22;11898;51.130;6.780;2022-07-06T15:16:16;28.60;99.90
23452;DHT22;11898;51.130;6.780;2022-07-06T15:18:44;28.50;99.90
23452;DHT22;11898;51.130;6.780;2022-07-06T15:23:40;28.50;99.90
23452;DHT22;11898;51.130;6.780;2022-07-06T15:26:08;28.20;99.90
23452;DHT22;11898;51.130;6.780;2022-07-06T15:28:36;28.10;99.90
23452;DHT22;11898;51.130;6.780;2022-07-06T15:31:04;28.00;99.90
23452;DHT22;11898;51.130;6.780;2022-07-06T15:33:32;27.90;99.90
23452;DHT22;11898;51.130;6.780;2022-07-06T15:36:00;27.70;99.90
23452;DHT22;11898;51.130;6.780;2022-07-06T15:38:27;27.60;99.90
23452;DHT22;11898;51.130;6.780;2022-07-06T15:40:55;27.60;99.90
23452;DHT22;11898;51.130;6.780;2022-07-06T15:43:25;27.80;99.90
23452;DHT22;11898;51.130;6.780;2022-07-06T15:45:54;27.90;99.90
23452;DHT22;11898;51.130;6.780;2022-07-06T15:48:23;28.00;99.90
23452;DHT22;11898;51.130;6.780;2022-07-06T15:50:51;28.10;99.90
23452;DHT22;11898;51.130;6.780;2022-07-06T15:53:19;28.20;99.90
23452;DHT22;11898;51.130;6.780;2022-07-06T15:55:47;28.30;99.90
23452;DHT22;11898;51.130;6.780;2022-07-06T15:58:16;28.30;99.90
23452;DHT22;11898;51.130;6.780;2022-07-06T16:00:44;28.40;99.90